createdAt,value
2023-01-20T00:01:28.203Z,97543.28
2023-01-20T00:03:58.740Z,97546.28
2023-01-20T00:06:29.900Z,97449.69
2023-01-20T00:09:00.532Z,97490.34
2023-01-20T00:11:28.423Z,97541.03
2023-01-20T00:14:00.160Z,97452.53
2023-01-20T00:16:27.189Z,97535.50
2023-01-20T00:18:54.492Z,97532.31
2023-01-20T00:21:21.698Z,97527.84
2023-01-20T00:23:49.151Z,97537.28
2023-01-20T00:26:19.372Z,97488.88
2023-01-20T00:28:46.571Z,97541.56
2023-01-20T00:31:42.908Z,97550.06
2023-01-20T00:34:09.999Z,97505.38
2023-01-20T00:36:36.526Z,97559.25
2023-01-20T00:39:04.077Z,97551.16
2023-01-20T00:41:32.317Z,97559.72
2023-01-20T00:43:59.187Z,97528.03
2023-01-20T00:46:25.967Z,97569.50
2023-01-20T00:48:52.554Z,97530.00
2023-01-20T00:51:19.061Z,97550.09
2023-01-20T00:53:45.631Z,97582.06
2023-01-20T00:56:12.112Z,97582.91
2023-01-20T00:58:38.884Z,97517.56
2023-01-20T01:01:05.694Z,97523.00
2023-01-20T01:03:32.325Z,97589.13
2023-01-20T01:06:18.519Z,97531.16
2023-01-20T01:08:45.567Z,97528.75
2023-01-20T01:11:13.023Z,97575.25
2023-01-20T01:13:39.735Z,97454.03
2023-01-20T01:16:12.520Z,97572.84
2023-01-20T01:18:39.718Z,97586.25
2023-01-20T01:21:08.716Z,97620.75
2023-01-20T01:23:35.325Z,97591.16
2023-01-20T01:26:01.851Z,97537.13
2023-01-20T01:28:28.325Z,97625.81
2023-01-20T01:30:54.950Z,97628.28
2023-01-20T01:33:22.056Z,97565.22
2023-01-20T01:35:59.801Z,97593.50
2023-01-20T01:38:27.371Z,97635.31
2023-01-20T01:40:55.472Z,97639.91
2023-01-20T01:43:34.326Z,97632.06
2023-01-20T01:46:01.060Z,97602.00
2023-01-20T01:48:39.063Z,97649.72
2023-01-20T01:51:19.458Z,97649.72
2023-01-20T01:53:53.806Z,97593.50
2023-01-20T01:56:25.967Z,97585.16
2023-01-20T01:58:57.068Z,97579.13
2023-01-20T02:01:24.581Z,97624.88
2023-01-20T02:04:02.517Z,97669.16
2023-01-20T02:06:33.401Z,97635.31
2023-01-20T02:09:02.582Z,97667.88
2023-01-20T02:11:31.495Z,97665.22
2023-01-20T02:13:59.229Z,97659.19
2023-01-20T02:16:42.911Z,97642.50
2023-01-20T02:19:39.739Z,97680.25
2023-01-20T02:22:25.880Z,97696.72
2023-01-20T02:25:20.301Z,97690.53
2023-01-20T02:28:28.931Z,97692.13
2023-01-20T02:31:20.919Z,97675.94
2023-01-20T02:34:00.840Z,97658.09
2023-01-20T02:36:30.500Z,97698.69
2023-01-20T02:39:07.655Z,97572.41
2023-01-20T02:41:58.591Z,97631.63
2023-01-20T02:44:30.159Z,97703.25
2023-01-20T02:47:06.428Z,97645.81
2023-01-20T02:49:39.385Z,97624.03
2023-01-20T02:52:08.570Z,97713.38
2023-01-20T02:54:39.637Z,97728.25
2023-01-20T02:57:09.221Z,97675.22
2023-01-20T02:59:41.973Z,97695.78
2023-01-20T03:02:14.323Z,97691.09
2023-01-20T03:04:47.796Z,97723.97
2023-01-20T03:07:15.775Z,97657.19
2023-01-20T03:09:47.586Z,97721.19
2023-01-20T03:12:18.516Z,97731.00
2023-01-20T03:14:45.191Z,97730.16
2023-01-20T03:17:11.808Z,97731.94
2023-01-20T03:19:38.334Z,97710.47
2023-01-20T03:22:05.093Z,97742.72
2023-01-20T03:24:36.032Z,97735.84
2023-01-20T03:27:02.653Z,97661.13
2023-01-20T03:29:30.599Z,97680.13
2023-01-20T03:32:01.635Z,97725.47
2023-01-20T03:34:32.545Z,97762.41
2023-01-20T03:37:00.820Z,97738.66
2023-01-20T03:39:28.349Z,97592.91
2023-01-20T03:42:13.923Z,97770.72
2023-01-20T03:45:31.165Z,97764.56
2023-01-20T03:48:08.715Z,97764.22
2023-01-20T03:50:47.763Z,97766.19
2023-01-20T03:53:37.388Z,97765.34
2023-01-20T03:56:09.107Z,97762.41
2023-01-20T03:58:40.855Z,97748.91
2023-01-20T04:01:17.910Z,97764.09
2023-01-20T04:03:49.102Z,97716.09
2023-01-20T04:06:18.014Z,97762.81
2023-01-20T04:08:51.310Z,97781.78
2023-01-20T04:11:18.041Z,97705.13
2023-01-20T04:13:44.754Z,97723.09
2023-01-20T04:16:15.715Z,97785.47
2023-01-20T04:18:45.532Z,97784.16
2023-01-20T04:21:29.842Z,97732.97
2023-01-20T04:24:02.973Z,97797.91
2023-01-20T04:26:29.502Z,97805.16
2023-01-20T04:28:56.184Z,97773.75
2023-01-20T04:31:30.624Z,97775.13
2023-01-20T04:33:57.984Z,97705.34
2023-01-20T04:36:24.851Z,97755.78
2023-01-20T04:38:51.473Z,97797.38
2023-01-20T04:41:18.176Z,97634.03
2023-01-20T04:43:45.658Z,97801.13
2023-01-20T04:46:13.448Z,97778.63
2023-01-20T04:48:39.959Z,97789.91
2023-01-20T04:51:07.765Z,97705.06
2023-01-20T04:53:34.856Z,97735.28
2023-01-20T04:56:01.402Z,97737.06
2023-01-20T04:58:27.974Z,97775.28
2023-01-20T05:00:54.774Z,97819.63
2023-01-20T05:03:21.488Z,97789.22
2023-01-20T05:05:54.815Z,97745.19
2023-01-20T05:08:22.101Z,97823.97
2023-01-20T05:10:49.523Z,97731.78
2023-01-20T05:13:16.514Z,97740.34
2023-01-20T05:15:44.480Z,97832.75
2023-01-20T05:18:11.392Z,97832.38
2023-01-20T05:20:37.942Z,97803.19
2023-01-20T05:23:05.175Z,97831.56
2023-01-20T05:25:31.728Z,97811.28
2023-01-20T05:27:59.640Z,97718.84
2023-01-20T05:30:26.263Z,97752.94
2023-01-20T05:32:52.805Z,97812.72
2023-01-20T05:35:19.858Z,97845.97
2023-01-20T05:37:46.331Z,97847.94
2023-01-20T05:40:13.707Z,97817.09
2023-01-20T05:42:40.347Z,97848.47
2023-01-20T05:45:07.412Z,97852.34
2023-01-20T05:47:33.896Z,97859.06
2023-01-20T05:50:01.668Z,97859.66
2023-01-20T05:52:28.108Z,97838.50
2023-01-20T05:54:54.656Z,97809.34
2023-01-20T05:57:24.250Z,97774.69
2023-01-20T05:59:52.337Z,97828.34
2023-01-20T06:02:21.577Z,97796.91
2023-01-20T06:04:49.711Z,97808.53
2023-01-20T06:07:16.194Z,97862.16
2023-01-20T06:09:42.777Z,97862.56
2023-01-20T06:12:10.454Z,97849.38
2023-01-20T06:14:36.971Z,97866.38
2023-01-20T06:17:04.214Z,97869.28
2023-01-20T06:19:31.959Z,97878.84
2023-01-20T06:21:59.704Z,97836.84
2023-01-20T06:24:26.175Z,97853.53
2023-01-20T06:26:54.587Z,97886.44
2023-01-20T06:29:21.533Z,97815.31
2023-01-20T06:32:15.640Z,97901.81
2023-01-20T06:34:43.272Z,97843.84
2023-01-20T06:37:11.268Z,97902.06
2023-01-20T06:39:43.472Z,97844.97
2023-01-20T06:42:11.569Z,97909.97
2023-01-20T06:44:39.248Z,97880.69
2023-01-20T06:47:07.792Z,97845.41
2023-01-20T06:49:35.721Z,97914.78
2023-01-20T06:52:02.899Z,97935.81
2023-01-20T06:54:30.968Z,97880.97
2023-01-20T06:56:58.728Z,97888.06
2023-01-20T06:59:27.662Z,97856.69
2023-01-20T07:01:54.421Z,97932.50
2023-01-20T07:04:21.320Z,97938.09
2023-01-20T07:06:50.760Z,97946.91
2023-01-20T07:09:18.336Z,97890.16
2023-01-20T07:11:46.198Z,97952.78
2023-01-20T07:14:14.806Z,97913.06
2023-01-20T07:16:41.483Z,97913.19
2023-01-20T07:19:08.052Z,97950.28
2023-01-20T07:21:36.819Z,97963.16
2023-01-20T07:24:05.354Z,97912.81
2023-01-20T07:26:36.446Z,97933.31
2023-01-20T07:29:03.010Z,97953.34
2023-01-20T07:31:31.518Z,97973.31
2023-01-20T07:33:58.472Z,97984.72
2023-01-20T07:36:26.806Z,97925.00
2023-01-20T07:38:54.066Z,97979.13
2023-01-20T07:41:24.395Z,97992.06
2023-01-20T07:43:54.385Z,97997.94
2023-01-20T07:46:22.816Z,97990.59
2023-01-20T07:48:50.653Z,97991.44
2023-01-20T07:51:19.530Z,98000.63
2023-01-20T07:53:48.264Z,98003.63
2023-01-20T07:56:22.226Z,97989.28
2023-01-20T07:58:50.577Z,97947.59
2023-01-20T08:01:20.457Z,98015.03
2023-01-20T08:03:51.279Z,98017.47
2023-01-20T08:06:21.057Z,98021.94
2023-01-20T08:08:48.119Z,98005.09
2023-01-20T08:11:23.551Z,97963.09
2023-01-20T08:13:50.285Z,97972.00
2023-01-20T08:16:20.246Z,97965.41
2023-01-20T08:18:47.223Z,97966.03
2023-01-20T08:21:25.852Z,98035.63
2023-01-20T08:23:56.677Z,98038.91
2023-01-20T08:26:25.048Z,98046.81
2023-01-20T08:28:52.207Z,97966.59
2023-01-20T08:31:21.418Z,98025.47
2023-01-20T08:33:51.684Z,98005.00
2023-01-20T08:36:24.285Z,98023.28
2023-01-20T08:38:51.072Z,97892.84
2023-01-20T08:41:26.753Z,98063.69
2023-01-20T08:43:55.078Z,98056.56
2023-01-20T08:46:22.746Z,98051.94
2023-01-20T08:48:50.556Z,98062.44
2023-01-20T08:51:24.916Z,97984.34
2023-01-20T08:53:51.853Z,98047.09
2023-01-20T08:56:21.030Z,98068.22
2023-01-20T08:58:47.920Z,97902.84
2023-01-20T09:01:21.974Z,98063.06
2023-01-20T09:04:03.489Z,98065.16
2023-01-20T09:06:38.349Z,98062.28
2023-01-20T09:09:06.236Z,98061.84
2023-01-20T09:11:32.964Z,98015.06
2023-01-20T09:14:02.044Z,98024.59
2023-01-20T09:16:29.763Z,97981.22
2023-01-20T09:18:57.257Z,98018.81
2023-01-20T09:21:25.841Z,98052.34
2023-01-20T09:23:52.694Z,98064.84
2023-01-20T09:26:34.925Z,97963.19
2023-01-20T09:29:10.319Z,98053.38
2023-01-20T09:31:52.530Z,98056.09
2023-01-20T09:34:27.288Z,98078.47
2023-01-20T09:37:19.886Z,98065.59
2023-01-20T09:40:07.172Z,98057.44
2023-01-20T09:43:18.093Z,98071.97
2023-01-20T09:46:09.042Z,98085.97
2023-01-20T09:49:11.360Z,98081.88
2023-01-20T09:52:18.798Z,98064.97
2023-01-20T09:54:55.568Z,98091.72
2023-01-20T09:57:25.061Z,98094.25
2023-01-20T10:00:03.725Z,98060.59
2023-01-20T10:02:37.888Z,98078.00
2023-01-20T10:05:19.580Z,98083.50
2023-01-20T10:07:56.729Z,97957.91
2023-01-20T10:10:45.850Z,98096.94
2023-01-20T10:13:21.476Z,98054.56
2023-01-20T10:15:53.577Z,98065.59
2023-01-20T10:18:27.015Z,98085.78
2023-01-20T10:21:12.960Z,98105.34
2023-01-20T10:23:51.165Z,98086.75
2023-01-20T10:26:40.916Z,98108.56
2023-01-20T10:29:13.441Z,98048.97
2023-01-20T10:32:18.030Z,98115.19
2023-01-20T10:34:47.326Z,98048.31
2023-01-20T10:37:16.003Z,98067.13
2023-01-20T10:39:58.305Z,98105.53
2023-01-20T10:42:28.500Z,98046.28
2023-01-20T10:44:55.348Z,98074.31
2023-01-20T10:48:06.837Z,98100.50
2023-01-20T10:51:10.521Z,98078.72
2023-01-20T10:53:52.100Z,98059.06
2023-01-20T10:56:41.290Z,98101.56
2023-01-20T10:59:18.885Z,98099.91
2023-01-20T11:01:56.262Z,98094.34
2023-01-20T11:04:28.084Z,98001.78
2023-01-20T11:07:00.145Z,98090.34
2023-01-20T11:09:37.539Z,98086.44
2023-01-20T11:12:11.201Z,98043.78
2023-01-20T11:14:41.358Z,98093.09
2023-01-20T11:17:14.676Z,98100.38
2023-01-20T11:19:48.144Z,98084.50
2023-01-20T11:22:25.988Z,98098.78
2023-01-20T11:24:58.947Z,98087.63
2023-01-20T11:27:47.941Z,98079.56
2023-01-20T11:30:28.468Z,98102.97
2023-01-20T11:33:28.656Z,98119.72
2023-01-20T11:36:04.811Z,98102.66
2023-01-20T11:38:48.529Z,98104.66
2023-01-20T11:41:33.154Z,97953.00
2023-01-20T11:44:08.861Z,98105.16
2023-01-20T11:46:37.742Z,98096.28
2023-01-20T11:49:24.400Z,98109.06
2023-01-20T11:51:54.565Z,98111.22
2023-01-20T11:54:29.734Z,98100.84
2023-01-20T11:57:09.662Z,98076.97
2023-01-20T11:59:50.033Z,98078.03
2023-01-20T12:02:24.683Z,98104.84
2023-01-20T12:05:03.518Z,98109.97
2023-01-20T12:07:48.873Z,98100.59
2023-01-20T12:10:26.452Z,98087.78
2023-01-20T12:13:16.647Z,98112.38
2023-01-20T12:15:52.867Z,98105.84
2023-01-20T12:18:34.181Z,98063.91
2023-01-20T12:21:18.108Z,98099.66
2023-01-20T12:23:56.997Z,98082.56
2023-01-20T12:26:26.057Z,98110.13
2023-01-20T12:29:22.574Z,98104.84
2023-01-20T12:31:49.918Z,98111.75
2023-01-20T12:34:24.076Z,98029.88
2023-01-20T12:36:59.895Z,98111.59
2023-01-20T12:39:41.120Z,98059.31
2023-01-20T12:42:10.794Z,98105.53
2023-01-20T12:44:51.623Z,98102.19
2023-01-20T12:47:27.637Z,98100.19
2023-01-20T12:50:41.884Z,98044.50
2023-01-20T12:53:49.170Z,98074.44
2023-01-20T12:56:21.682Z,98101.31
2023-01-20T12:59:17.252Z,98100.72
2023-01-20T13:02:02.819Z,98105.84
2023-01-20T13:04:35.470Z,98105.97
2023-01-20T13:07:20.907Z,98103.53
2023-01-20T13:10:11.815Z,98098.34
2023-01-20T13:12:45.182Z,98108.34
2023-01-20T13:15:28.862Z,98061.28
2023-01-20T13:18:28.237Z,98102.38
2023-01-20T13:20:57.714Z,98066.34
2023-01-20T13:23:31.453Z,98020.53
2023-01-20T13:26:00.002Z,98034.91
2023-01-20T13:28:28.799Z,98083.16
2023-01-20T13:31:02.022Z,97928.44
2023-01-20T13:33:34.010Z,98086.25
2023-01-20T13:36:14.511Z,98058.41
2023-01-20T13:38:43.018Z,97979.16
2023-01-20T13:41:12.719Z,98074.75
2023-01-20T13:43:42.297Z,98087.84
2023-01-20T13:46:08.754Z,98086.16
2023-01-20T13:48:37.431Z,98086.63
2023-01-20T13:51:26.609Z,98094.34
2023-01-20T13:53:53.692Z,98064.84
2023-01-20T13:56:26.370Z,98088.50
2023-01-20T13:58:54.691Z,98062.06
2023-01-20T14:01:21.399Z,98105.69
2023-01-20T14:04:18.944Z,98100.41
2023-01-20T14:06:51.509Z,98096.03
2023-01-20T14:09:24.578Z,98107.38
2023-01-20T14:11:55.205Z,98076.22
2023-01-20T14:14:25.320Z,98105.38
2023-01-20T14:16:55.759Z,98105.69
2023-01-20T14:19:27.496Z,98016.19
2023-01-20T14:21:56.711Z,98108.34
2023-01-20T14:24:32.671Z,98079.53
2023-01-20T14:27:20.633Z,98115.22
2023-01-20T14:29:49.528Z,98114.09
2023-01-20T14:32:22.780Z,98119.69
2023-01-20T14:34:51.663Z,98120.00
2023-01-20T14:37:32.025Z,98116.06
2023-01-20T14:40:23.931Z,98038.78
2023-01-20T14:43:00.364Z,98124.13
2023-01-20T14:45:29.907Z,98119.88
2023-01-20T14:47:57.985Z,98077.13
2023-01-20T14:50:25.210Z,98111.47
2023-01-20T14:52:56.987Z,98121.84
2023-01-20T14:55:36.246Z,98080.38
2023-01-20T14:58:31.529Z,98121.66
2023-01-20T15:01:04.470Z,98128.88
2023-01-20T15:03:32.847Z,98106.31
2023-01-20T15:06:12.270Z,98127.13
2023-01-20T15:08:38.760Z,98127.59
2023-01-20T15:11:14.749Z,98129.28
2023-01-20T15:13:44.121Z,98131.59
2023-01-20T15:16:24.073Z,98050.66
2023-01-20T15:19:19.846Z,98135.78
2023-01-20T15:21:56.795Z,98141.81
2023-01-20T15:24:30.610Z,98130.78
2023-01-20T15:27:00.591Z,98084.75
2023-01-20T15:29:36.970Z,98148.41
2023-01-20T15:32:14.543Z,98064.00
2023-01-20T15:34:42.175Z,98104.47
2023-01-20T15:37:18.545Z,98163.03
2023-01-20T15:39:45.890Z,98172.88
2023-01-20T15:42:15.134Z,98189.47
2023-01-20T15:44:41.774Z,98156.50
2023-01-20T15:47:19.956Z,98151.44
2023-01-20T15:49:47.029Z,98178.66
2023-01-20T15:52:13.951Z,98014.38
2023-01-20T15:54:40.796Z,98169.34
2023-01-20T15:57:17.212Z,98125.53
2023-01-20T15:59:47.567Z,98188.88
2023-01-20T16:02:22.189Z,98177.38
2023-01-20T16:04:51.194Z,98188.53
2023-01-20T16:07:20.494Z,98182.97
2023-01-20T16:09:47.379Z,98003.66
2023-01-20T16:12:15.842Z,98195.41
2023-01-20T16:14:43.353Z,98136.03
2023-01-20T16:17:23.509Z,98151.59
2023-01-20T16:19:51.323Z,98201.50
2023-01-20T16:22:19.097Z,98069.06
2023-01-20T16:24:49.053Z,98169.31
2023-01-20T16:27:22.460Z,98208.03
2023-01-20T16:29:49.884Z,98209.84
2023-01-20T16:32:18.681Z,98153.06
2023-01-20T16:34:48.080Z,98111.38
2023-01-20T16:37:15.981Z,98189.66
2023-01-20T16:39:43.303Z,98121.56
2023-01-20T16:42:12.373Z,98136.28
2023-01-20T16:44:39.145Z,98204.38
2023-01-20T16:47:08.473Z,98037.19
2023-01-20T16:49:35.550Z,98109.91
2023-01-20T16:52:04.410Z,98206.56
2023-01-20T16:54:34.030Z,98202.56
2023-01-20T16:57:00.660Z,98135.91
2023-01-20T16:59:27.296Z,98144.13
2023-01-20T17:01:55.266Z,98211.13
2023-01-20T17:04:23.143Z,98140.69
2023-01-20T17:06:52.344Z,98127.06
2023-01-20T17:09:18.855Z,98031.03
2023-01-20T17:11:45.375Z,98142.97
2023-01-20T17:14:11.913Z,98005.56
2023-01-20T17:16:39.306Z,98208.47
2023-01-20T17:19:06.418Z,98145.59
2023-01-20T17:21:37.016Z,98219.66
2023-01-20T17:24:05.107Z,98140.66
2023-01-20T17:26:34.674Z,98168.44
2023-01-20T17:29:04.653Z,98221.78
2023-01-20T17:31:35.365Z,98221.28
2023-01-20T17:34:06.849Z,98133.28
2023-01-20T17:36:35.188Z,98181.41
2023-01-20T17:39:05.213Z,98203.22
2023-01-20T17:41:32.371Z,98188.47
2023-01-20T17:43:58.987Z,98138.88
2023-01-20T17:46:28.497Z,98223.44
2023-01-20T17:48:57.296Z,98166.81
2023-01-20T17:51:26.113Z,98227.69
2023-01-20T17:53:56.244Z,98199.63
2023-01-20T17:56:28.183Z,98081.56
2023-01-20T17:58:55.930Z,98174.63
2023-01-20T18:01:31.771Z,98227.53
2023-01-20T18:04:02.911Z,98229.97
2023-01-20T18:06:31.619Z,98161.50
2023-01-20T18:09:00.505Z,98134.09
2023-01-20T18:11:30.618Z,98097.16
2023-01-20T18:13:59.092Z,98232.09
2023-01-20T18:16:33.262Z,98233.72
2023-01-20T18:19:01.227Z,98240.13
2023-01-20T18:21:30.554Z,98243.88
2023-01-20T18:24:00.593Z,98188.84
2023-01-20T18:26:34.779Z,98238.13
2023-01-20T18:29:05.297Z,98189.03
2023-01-20T18:31:36.398Z,98243.06
2023-01-20T18:34:07.036Z,98243.53
2023-01-20T18:36:42.070Z,98242.56
2023-01-20T18:39:16.376Z,98245.50
2023-01-20T18:41:44.951Z,98236.19
2023-01-20T18:44:12.312Z,98175.84
2023-01-20T18:46:41.998Z,98237.28
2023-01-20T18:49:25.105Z,98069.66
2023-01-20T18:52:53.830Z,98039.28
2023-01-20T18:55:08.037Z,98239.13
2023-01-20T18:57:34.654Z,98187.41
2023-01-20T19:00:03.114Z,98236.34
2023-01-20T19:02:30.909Z,98215.94
2023-01-20T19:04:57.480Z,98243.88
2023-01-20T19:07:24.087Z,98166.53
2023-01-20T19:09:51.055Z,98179.50
2023-01-20T19:12:21.826Z,98194.97
2023-01-20T19:14:55.810Z,98235.31
2023-01-20T19:17:22.345Z,98230.09
2023-01-20T19:19:50.156Z,98185.09
2023-01-20T19:22:16.988Z,98167.31
2023-01-20T19:24:43.826Z,98208.06
2023-01-20T19:27:10.465Z,98203.31
2023-01-20T19:29:38.529Z,98168.03
2023-01-20T19:32:05.059Z,98144.34
2023-01-20T19:34:31.541Z,98169.28
2023-01-20T19:37:00.532Z,98203.78
2023-01-20T19:39:27.441Z,98248.13
2023-01-20T19:41:54.059Z,98209.69
2023-01-20T19:44:20.619Z,98147.94
2023-01-20T19:46:47.083Z,98245.50
2023-01-20T19:49:13.634Z,98191.56
2023-01-20T19:51:40.266Z,98206.53
2023-01-20T19:54:06.937Z,98077.19
2023-01-20T19:56:35.038Z,98138.72
2023-01-20T19:59:02.435Z,98223.16
2023-01-20T20:01:36.767Z,98164.47
2023-01-20T20:04:12.768Z,98259.59
2023-01-20T20:06:45.041Z,98258.94
2023-01-20T20:09:23.303Z,98265.31
2023-01-20T20:11:50.967Z,98209.91
2023-01-20T20:14:20.542Z,98269.06
2023-01-20T20:16:47.983Z,98193.13
2023-01-20T20:19:18.722Z,98268.06
2023-01-20T20:21:45.882Z,98273.97
2023-01-20T20:24:14.512Z,98276.25
2023-01-20T20:26:41.757Z,98276.63
2023-01-20T20:29:08.775Z,98293.28
2023-01-20T20:31:37.434Z,98137.41
2023-01-20T20:34:05.757Z,98102.50
2023-01-20T20:36:33.656Z,98189.63
2023-01-20T20:39:02.501Z,98120.16
2023-01-20T20:41:31.550Z,98212.78
2023-01-20T20:44:00.347Z,98282.84
2023-01-20T20:46:28.213Z,98274.28
2023-01-20T20:48:56.772Z,98264.69
2023-01-20T20:51:26.037Z,98297.41
2023-01-20T20:53:55.303Z,98296.97
2023-01-20T20:56:22.424Z,98219.69
2023-01-20T20:59:01.028Z,98251.94
2023-01-20T21:01:30.637Z,98175.88
2023-01-20T21:03:57.987Z,98215.16
2023-01-20T21:06:25.501Z,98297.31
2023-01-20T21:08:52.804Z,98294.84
2023-01-20T21:11:20.561Z,98293.03
2023-01-20T21:13:49.211Z,98303.06
2023-01-20T21:16:19.776Z,98124.75
2023-01-20T21:18:47.142Z,98291.19
2023-01-20T21:21:14.465Z,98276.59
2023-01-20T21:23:41.665Z,98306.97
2023-01-20T21:26:12.365Z,98309.75
2023-01-20T21:28:39.988Z,98241.72
2023-01-20T21:31:10.055Z,98291.31
2023-01-20T21:33:38.865Z,98283.63
2023-01-20T21:36:07.260Z,98294.06
2023-01-20T21:38:33.969Z,98272.84
2023-01-20T21:41:09.859Z,98304.06
2023-01-20T21:43:57.903Z,98317.53
2023-01-20T21:46:26.127Z,98315.56
2023-01-20T21:49:11.112Z,98312.09
2023-01-20T21:51:56.326Z,98289.06
2023-01-20T21:54:31.084Z,98317.84
2023-01-20T21:56:58.898Z,98318.47
2023-01-20T21:59:26.237Z,98316.22
2023-01-20T22:01:53.525Z,98297.16
2023-01-20T22:04:20.173Z,98273.56
2023-01-20T22:06:46.791Z,98242.84
2023-01-20T22:09:13.774Z,98312.94
2023-01-20T22:11:40.516Z,98312.72
2023-01-20T22:14:06.999Z,98288.59
2023-01-20T22:16:33.942Z,98285.28
2023-01-20T22:19:00.555Z,98280.56
2023-01-20T22:21:27.099Z,98310.56
2023-01-20T22:23:53.861Z,98155.41
2023-01-20T22:26:20.673Z,98347.03
2023-01-20T22:28:47.206Z,98307.16
2023-01-20T22:31:23.906Z,98292.69
2023-01-20T22:33:55.077Z,98357.22
2023-01-20T22:36:23.034Z,98358.22
2023-01-20T22:38:51.150Z,98366.69
2023-01-20T22:41:18.964Z,98359.59
2023-01-20T22:43:48.019Z,98358.72
2023-01-20T22:46:16.433Z,98324.78
2023-01-20T22:48:43.073Z,98298.19
2023-01-20T22:51:21.429Z,98366.56
2023-01-20T22:53:48.835Z,98351.38
2023-01-20T22:56:20.873Z,98369.25
2023-01-20T22:58:47.817Z,98270.06
2023-01-20T23:01:15.215Z,98376.53
2023-01-20T23:03:42.220Z,98384.69
2023-01-20T23:06:09.696Z,98380.78
2023-01-20T23:08:36.614Z,98325.22
2023-01-20T23:11:11.968Z,98389.34
2023-01-20T23:13:39.305Z,98365.78
2023-01-20T23:16:10.099Z,98391.78
2023-01-20T23:18:37.074Z,98367.72
2023-01-20T23:21:05.807Z,98386.53
2023-01-20T23:23:33.394Z,98275.03
2023-01-20T23:26:09.822Z,98364.53
2023-01-20T23:28:36.568Z,98313.72
2023-01-20T23:31:06.170Z,98329.78
2023-01-20T23:33:33.102Z,98381.13
2023-01-20T23:36:04.702Z,98331.28
2023-01-20T23:38:31.741Z,98374.88
2023-01-20T23:40:58.504Z,98328.91
2023-01-20T23:43:26.271Z,98356.66
2023-01-20T23:45:56.920Z,98412.75
2023-01-20T23:48:24.072Z,98404.13
2023-01-20T23:50:51.711Z,98402.47
2023-01-20T23:53:18.312Z,98234.81
2023-01-20T23:55:45.309Z,98409.22
2023-01-20T23:58:11.955Z,98339.66
